createdAt,value
2023-03-12T00:00:36.567Z,2.17
2023-03-12T00:03:13.165Z,1.63
2023-03-12T00:05:51.642Z,1.60
2023-03-12T00:08:25.625Z,1.63
2023-03-12T00:10:59.527Z,1.80
2023-03-12T00:13:33.592Z,1.90
2023-03-12T00:16:08.721Z,1.70
2023-03-12T00:18:42.574Z,1.80
2023-03-12T00:21:17.543Z,1.77
2023-03-12T00:23:53.684Z,2.00
2023-03-12T00:26:22.068Z,2.00
2023-03-12T00:28:57.587Z,1.80
2023-03-12T00:31:28.789Z,2.47
2023-03-12T00:33:57.255Z,2.10
2023-03-12T00:36:33.599Z,1.73
2023-03-12T00:39:01.973Z,1.70
2023-03-12T00:41:36.553Z,2.30
2023-03-12T00:44:04.227Z,2.17
2023-03-12T00:46:31.639Z,2.00
2023-03-12T00:49:05.535Z,1.67
2023-03-12T00:51:32.870Z,2.20
2023-03-12T00:54:06.566Z,2.00
2023-03-12T00:56:42.275Z,1.90
2023-03-12T00:59:16.177Z,1.97
2023-03-12T01:01:50.173Z,1.67
2023-03-12T01:04:25.385Z,1.80
2023-03-12T01:07:07.583Z,1.70
2023-03-12T01:09:41.598Z,2.13
2023-03-12T01:12:09.144Z,1.87
2023-03-12T01:14:42.551Z,2.20
2023-03-12T01:17:16.605Z,1.60
2023-03-12T01:19:43.943Z,2.00
2023-03-12T01:22:17.614Z,1.87
2023-03-12T01:24:44.973Z,1.63
2023-03-12T01:27:18.591Z,1.73
2023-03-12T01:29:52.564Z,2.00
2023-03-12T01:32:28.293Z,1.83
2023-03-12T01:35:02.257Z,1.73
2023-03-12T01:37:30.001Z,1.70
2023-03-12T01:40:05.256Z,2.00
2023-03-12T01:42:39.217Z,1.80
2023-03-12T01:45:07.223Z,1.53
2023-03-12T01:47:42.187Z,1.80
2023-03-12T01:50:16.249Z,2.00
2023-03-12T01:52:44.629Z,2.03
2023-03-12T01:55:22.572Z,1.53
2023-03-12T01:58:03.227Z,1.40
2023-03-12T02:00:37.537Z,1.60
2023-03-12T02:03:15.739Z,2.00
2023-03-12T02:05:59.299Z,1.67
2023-03-12T02:08:33.356Z,2.07
2023-03-12T02:11:00.740Z,1.93
2023-03-12T02:13:28.286Z,1.60
2023-03-12T02:16:02.294Z,1.60
2023-03-12T02:18:31.584Z,1.40
2023-03-12T02:21:32.655Z,1.60
2023-03-12T02:24:07.019Z,1.60
2023-03-12T02:26:42.681Z,2.80
2023-03-12T02:29:12.056Z,1.30
2023-03-12T02:31:59.761Z,1.87
2023-03-12T02:34:27.286Z,1.77
2023-03-12T02:37:00.699Z,1.60
2023-03-12T02:39:28.621Z,1.80
2023-03-12T02:42:04.683Z,1.80
2023-03-12T02:44:33.677Z,2.40
2023-03-12T02:47:08.709Z,1.57
2023-03-12T02:49:36.533Z,1.77
2023-03-12T02:52:16.013Z,2.00
2023-03-12T02:54:44.048Z,1.70
2023-03-12T02:57:19.023Z,1.90
2023-03-12T02:59:53.011Z,1.90
2023-03-12T03:02:34.012Z,1.93
2023-03-12T03:05:08.060Z,1.60
2023-03-12T03:07:42.041Z,2.00
2023-03-12T03:10:17.032Z,1.93
2023-03-12T03:12:52.008Z,2.07
2023-03-12T03:15:28.034Z,2.00
2023-03-12T03:18:01.949Z,2.20
2023-03-12T03:20:36.992Z,2.10
2023-03-12T03:23:04.951Z,1.90
2023-03-12T03:25:39.964Z,2.30
2023-03-12T03:28:13.994Z,2.27
2023-03-12T03:30:48.013Z,2.37
2023-03-12T03:33:22.002Z,2.13
2023-03-12T03:35:50.407Z,2.40
2023-03-12T03:38:23.978Z,2.33
2023-03-12T03:40:51.527Z,2.70
2023-03-12T03:43:25.955Z,3.07
2023-03-12T03:46:02.202Z,2.77
2023-03-12T03:48:35.972Z,3.23
2023-03-12T03:51:05.278Z,3.90
2023-03-12T03:53:40.944Z,3.83
2023-03-12T03:56:22.926Z,4.10
2023-03-12T03:58:56.982Z,4.00
2023-03-12T04:01:37.947Z,3.87
2023-03-12T04:04:12.021Z,3.80
2023-03-12T04:06:45.961Z,4.23
2023-03-12T04:09:13.376Z,3.60
2023-03-12T04:11:48.015Z,4.27
2023-03-12T04:14:15.893Z,3.90
2023-03-12T04:16:49.949Z,4.23
2023-03-12T04:19:17.464Z,4.00
2023-03-12T04:21:51.978Z,3.87
2023-03-12T04:24:20.427Z,4.10
2023-03-12T04:26:53.951Z,3.53
2023-03-12T04:29:27.943Z,3.40
2023-03-12T04:32:03.282Z,3.63
2023-03-12T04:34:37.281Z,3.60
2023-03-12T04:37:14.780Z,3.77
2023-03-12T04:39:50.733Z,3.87
2023-03-12T04:42:18.149Z,4.10
2023-03-12T04:44:51.809Z,3.80
2023-03-12T04:47:25.815Z,4.20
2023-03-12T04:50:02.782Z,3.67
2023-03-12T04:52:32.214Z,3.60
2023-03-12T04:55:00.613Z,3.80
2023-03-12T04:57:34.263Z,4.20
2023-03-12T05:00:08.275Z,4.30
2023-03-12T05:02:50.323Z,4.00
2023-03-12T05:05:24.313Z,3.73
2023-03-12T05:07:54.823Z,4.13
2023-03-12T05:10:29.295Z,4.30
2023-03-12T05:13:03.301Z,4.27
2023-03-12T05:15:37.277Z,4.50
2023-03-12T05:18:04.919Z,3.70
2023-03-12T05:20:39.279Z,4.20
2023-03-12T05:23:06.728Z,4.23
2023-03-12T05:25:40.344Z,4.40
2023-03-12T05:28:08.321Z,4.40
2023-03-12T05:30:43.334Z,4.03
2023-03-12T05:33:17.325Z,3.87
2023-03-12T05:35:51.386Z,4.00
2023-03-12T05:38:20.926Z,4.10
2023-03-12T05:41:05.951Z,5.00
2023-03-12T05:43:40.938Z,3.70
2023-03-12T05:46:09.776Z,4.90
2023-03-12T05:48:43.968Z,4.43
2023-03-12T05:51:13.540Z,4.83
2023-03-12T05:53:47.601Z,4.33
2023-03-12T05:56:25.286Z,4.80
2023-03-12T05:58:59.310Z,4.43
2023-03-12T06:01:40.251Z,4.53
2023-03-12T06:04:21.327Z,4.43
2023-03-12T06:06:56.271Z,5.17
2023-03-12T06:09:31.274Z,4.37
2023-03-12T06:12:07.004Z,4.93
2023-03-12T06:14:41.055Z,4.10
2023-03-12T06:17:08.637Z,5.00
2023-03-12T06:19:44.320Z,4.40
2023-03-12T06:22:11.751Z,4.80
2023-03-12T06:24:47.315Z,4.87
2023-03-12T06:27:15.982Z,4.37
2023-03-12T06:29:50.359Z,5.10
2023-03-12T06:32:19.146Z,4.90
2023-03-12T06:34:54.172Z,4.40
2023-03-12T06:37:35.278Z,4.90
2023-03-12T06:40:04.984Z,5.13
2023-03-12T06:42:39.651Z,5.43
2023-03-12T06:45:26.623Z,4.87
2023-03-12T06:48:04.596Z,4.70
2023-03-12T06:50:36.706Z,5.50
2023-03-12T06:53:12.499Z,5.87
2023-03-12T06:55:46.725Z,5.33
2023-03-12T06:58:20.540Z,4.90
2023-03-12T07:00:58.263Z,4.93
2023-03-12T07:03:33.829Z,5.10
2023-03-12T07:06:08.440Z,5.00
2023-03-12T07:08:36.336Z,4.93
2023-03-12T07:11:11.472Z,4.70
2023-03-12T07:13:51.733Z,4.70
2023-03-12T07:16:27.443Z,4.93
2023-03-12T07:19:08.433Z,5.27
2023-03-12T07:21:42.421Z,4.33
2023-03-12T07:24:18.428Z,4.50
2023-03-12T07:26:52.429Z,4.03
2023-03-12T07:29:20.185Z,4.13
2023-03-12T07:31:55.523Z,3.80
2023-03-12T07:34:23.135Z,2.97
2023-03-12T07:36:50.943Z,2.50
2023-03-12T07:39:25.693Z,2.53
2023-03-12T07:42:00.480Z,2.10
2023-03-12T07:44:34.744Z,2.60
2023-03-12T07:47:20.640Z,1.53
2023-03-12T07:49:59.941Z,1.17
2023-03-12T07:52:35.635Z,1.13
2023-03-12T07:55:07.247Z,1.50
2023-03-12T07:57:41.780Z,1.10
2023-03-12T08:00:10.900Z,1.20
2023-03-12T08:02:53.436Z,1.10
2023-03-12T08:05:25.075Z,0.90
2023-03-12T08:08:04.629Z,0.97
2023-03-12T08:10:44.095Z,0.90
2023-03-12T08:13:14.304Z,0.80
2023-03-12T08:15:50.611Z,0.63
2023-03-12T08:18:20.619Z,1.80
2023-03-12T08:20:59.680Z,1.23
2023-03-12T08:23:27.331Z,1.10
2023-03-12T08:26:01.666Z,0.70
2023-03-12T08:28:35.576Z,0.60
2023-03-12T08:31:03.660Z,0.40
2023-03-12T08:33:37.822Z,0.40
2023-03-12T08:36:06.410Z,0.80
2023-03-12T08:38:40.916Z,0.60
2023-03-12T08:41:09.175Z,0.57
2023-03-12T08:43:43.618Z,0.50
2023-03-12T08:46:18.820Z,0.73
2023-03-12T08:48:49.513Z,0.40
2023-03-12T08:51:23.626Z,0.40
2023-03-12T08:53:56.476Z,0.57
2023-03-12T08:56:30.095Z,0.50
2023-03-12T08:59:06.341Z,0.37
2023-03-12T09:01:42.366Z,0.40
2023-03-12T09:04:28.500Z,0.40
2023-03-12T09:07:04.656Z,0.27
2023-03-12T09:09:32.224Z,0.47
2023-03-12T09:12:06.532Z,0.20
2023-03-12T09:15:01.943Z,0.20
2023-03-12T09:17:28.553Z,0.57
2023-03-12T09:19:56.277Z,0.43
2023-03-12T09:22:30.511Z,0.30
2023-03-12T09:25:04.569Z,0.37
2023-03-12T09:27:47.672Z,0.30
2023-03-12T09:30:25.716Z,0.20
2023-03-12T09:32:53.820Z,0.40
2023-03-12T09:35:30.363Z,0.10
2023-03-12T09:38:05.669Z,0.20
2023-03-12T09:40:37.198Z,0.30
2023-03-12T09:43:39.053Z,0.60
2023-03-12T09:46:23.058Z,0.40
2023-03-12T09:49:00.031Z,0.40
2023-03-12T09:51:51.695Z,0.40
2023-03-12T09:54:47.297Z,0.20
2023-03-12T09:57:32.233Z,0.40
2023-03-12T10:00:03.001Z,0.30
2023-03-12T10:03:12.732Z,0.57
2023-03-12T10:06:16.700Z,0.83
2023-03-12T10:08:59.330Z,1.00
2023-03-12T10:12:00.672Z,1.37
2023-03-12T10:15:09.591Z,1.20
2023-03-12T10:18:04.827Z,1.43
2023-03-12T10:20:35.496Z,1.60
2023-03-12T10:23:48.547Z,1.80
2023-03-12T10:26:49.611Z,1.87
2023-03-12T10:29:32.597Z,2.17
2023-03-12T10:32:22.732Z,1.70
2023-03-12T10:34:55.796Z,1.87
2023-03-12T10:37:32.637Z,2.00
2023-03-12T10:40:08.610Z,1.80
2023-03-12T10:42:42.742Z,1.77
2023-03-12T10:45:10.283Z,1.70
2023-03-12T10:47:51.667Z,1.50
2023-03-12T10:50:26.170Z,1.50
2023-03-12T10:53:19.639Z,1.50
2023-03-12T10:56:09.693Z,1.50
2023-03-12T10:58:49.902Z,1.30
2023-03-12T11:01:38.828Z,1.53
2023-03-12T11:04:39.962Z,1.43
2023-03-12T11:07:19.196Z,1.57
2023-03-12T11:10:09.013Z,1.30
2023-03-12T11:12:40.134Z,1.40
2023-03-12T11:15:48.384Z,1.30
2023-03-12T11:18:45.317Z,1.40
2023-03-12T11:21:23.634Z,1.77
2023-03-12T11:24:03.363Z,1.77
2023-03-12T11:26:59.378Z,1.70
2023-03-12T11:29:55.357Z,2.10
2023-03-12T11:32:36.721Z,1.90
2023-03-12T11:35:17.476Z,1.70
2023-03-12T11:38:21.364Z,2.20
2023-03-12T11:41:07.007Z,2.50
2023-03-12T11:44:01.988Z,2.67
2023-03-12T11:47:01.434Z,2.23
2023-03-12T11:50:00.358Z,2.70
2023-03-12T11:53:04.600Z,2.83
2023-03-12T11:56:13.460Z,2.00
2023-03-12T11:59:20.335Z,1.97
2023-03-12T12:02:19.360Z,2.47
2023-03-12T12:05:28.359Z,1.80
2023-03-12T12:08:16.320Z,2.10
2023-03-12T12:11:07.330Z,1.90
2023-03-12T12:14:08.864Z,2.03
2023-03-12T12:17:17.345Z,2.10
2023-03-12T12:20:16.641Z,1.83
2023-03-12T12:23:19.662Z,2.20
2023-03-12T12:26:06.074Z,1.70
2023-03-12T12:28:52.540Z,1.93
2023-03-12T12:31:41.576Z,1.77
2023-03-12T12:34:37.678Z,1.70
2023-03-12T12:37:35.255Z,1.50
2023-03-12T12:40:26.777Z,1.83
2023-03-12T12:43:34.883Z,1.27
2023-03-12T12:46:22.641Z,1.60
2023-03-12T12:49:24.190Z,3.67
2023-03-12T12:52:06.591Z,2.10
2023-03-12T12:54:51.341Z,2.03
2023-03-12T12:57:48.516Z,3.10
2023-03-12T13:00:37.992Z,2.40
2023-03-12T13:03:25.686Z,2.17
2023-03-12T13:05:54.702Z,2.20
2023-03-12T13:08:49.801Z,2.23
2023-03-12T13:11:20.493Z,2.70
2023-03-12T13:14:22.933Z,2.30
2023-03-12T13:17:13.168Z,3.97
2023-03-12T13:20:00.697Z,2.10
2023-03-12T13:23:04.872Z,2.30
2023-03-12T13:26:11.036Z,2.50
2023-03-12T13:29:19.921Z,2.33
2023-03-12T13:31:54.808Z,2.17
2023-03-12T13:34:28.876Z,2.13
2023-03-12T13:37:08.898Z,2.20
2023-03-12T13:39:43.882Z,1.70
2023-03-12T13:42:38.692Z,1.93
2023-03-12T13:45:56.099Z,2.17
2023-03-12T13:48:31.979Z,2.00
2023-03-12T13:51:37.086Z,2.63
2023-03-12T13:54:05.072Z,2.83
2023-03-12T13:56:40.995Z,2.70
2023-03-12T13:59:15.727Z,2.27
2023-03-12T14:01:56.077Z,2.10
2023-03-12T14:04:44.051Z,2.57
2023-03-12T14:07:43.978Z,2.63
2023-03-12T14:10:33.654Z,1.90
2023-03-12T14:13:17.976Z,2.40
2023-03-12T14:15:55.162Z,2.07
2023-03-12T14:18:31.967Z,1.65
2023-03-12T14:21:03.381Z,1.95
2023-03-12T14:23:45.970Z,2.05
2023-03-12T14:26:21.043Z,2.03
2023-03-12T14:29:08.069Z,1.80
2023-03-12T14:31:45.262Z,1.55
2023-03-12T14:34:26.769Z,1.67
2023-03-12T14:37:23.691Z,1.75
2023-03-12T14:40:04.617Z,1.67
2023-03-12T14:42:42.951Z,1.70
2023-03-12T14:45:18.808Z,2.00
2023-03-12T14:48:01.640Z,1.88
2023-03-12T14:50:43.704Z,1.90
2023-03-12T14:53:27.660Z,1.85
2023-03-12T14:56:14.649Z,2.13
2023-03-12T14:58:53.674Z,2.10
2023-03-12T15:01:39.756Z,1.98
2023-03-12T15:04:27.717Z,1.77
2023-03-12T15:07:01.600Z,2.20
2023-03-12T15:09:37.686Z,2.30
2023-03-12T15:12:28.431Z,2.22
2023-03-12T15:15:08.546Z,2.20
2023-03-12T15:17:43.565Z,2.70
2023-03-12T15:20:16.356Z,1.70
2023-03-12T15:22:50.574Z,2.80
2023-03-12T15:25:36.237Z,2.70
2023-03-12T15:28:34.482Z,2.08
2023-03-12T15:31:16.597Z,1.83
2023-03-12T15:34:05.513Z,2.00
2023-03-12T15:36:36.386Z,2.50
2023-03-12T15:39:19.839Z,2.05
2023-03-12T15:41:56.449Z,2.05
2023-03-12T15:44:34.496Z,2.37
2023-03-12T15:47:14.219Z,1.87
2023-03-12T15:49:51.187Z,2.23
2023-03-12T15:52:19.983Z,2.87
2023-03-12T15:55:31.471Z,2.53
2023-03-12T15:58:06.440Z,2.30
2023-03-12T16:00:46.029Z,2.50
2023-03-12T16:03:27.422Z,2.57
2023-03-12T16:06:01.988Z,2.27
2023-03-12T16:08:46.451Z,2.10
2023-03-12T16:11:27.490Z,2.50
2023-03-12T16:14:18.493Z,2.20
2023-03-12T16:16:53.549Z,2.30
2023-03-12T16:19:23.078Z,2.60
2023-03-12T16:21:57.757Z,2.07
2023-03-12T16:24:34.577Z,2.50
2023-03-12T16:27:12.629Z,2.40
2023-03-12T16:29:42.073Z,3.40
2023-03-12T16:32:23.534Z,2.97
2023-03-12T16:34:51.367Z,2.67
2023-03-12T16:37:25.515Z,3.60
2023-03-12T16:39:59.440Z,2.80
2023-03-12T16:42:35.520Z,5.67
2023-03-12T16:45:09.537Z,6.83
2023-03-12T16:47:43.472Z,6.90
2023-03-12T16:50:25.176Z,3.20
2023-03-12T16:53:00.899Z,2.50
2023-03-12T16:55:37.499Z,2.67
2023-03-12T16:58:19.130Z,2.63
2023-03-12T17:00:46.993Z,2.50
2023-03-12T17:03:36.194Z,2.13
2023-03-12T17:06:20.340Z,2.60
2023-03-12T17:08:55.395Z,2.37
2023-03-12T17:11:35.302Z,2.60
2023-03-12T17:14:16.875Z,2.30
2023-03-12T17:16:46.391Z,2.67
2023-03-12T17:19:27.268Z,3.03
2023-03-12T17:22:02.508Z,2.23
2023-03-12T17:24:30.255Z,3.10
2023-03-12T17:27:05.558Z,2.90
2023-03-12T17:29:39.600Z,2.37
2023-03-12T17:32:15.162Z,2.17
2023-03-12T17:34:47.007Z,2.60
2023-03-12T17:37:20.904Z,3.67
2023-03-12T17:39:49.252Z,2.30
2023-03-12T17:42:22.988Z,2.70
2023-03-12T17:44:56.948Z,5.20
2023-03-12T17:47:31.172Z,2.60
2023-03-12T17:50:09.555Z,3.40
2023-03-12T17:52:45.016Z,2.70
2023-03-12T17:55:12.949Z,3.17
2023-03-12T17:57:51.973Z,3.10
2023-03-12T18:00:27.143Z,2.90
2023-03-12T18:03:01.967Z,2.27
2023-03-12T18:05:50.382Z,2.30
2023-03-12T18:08:27.596Z,2.33
2023-03-12T18:11:04.811Z,2.80
2023-03-12T18:13:42.054Z,2.27
2023-03-12T18:16:09.616Z,2.80
2023-03-12T18:18:43.946Z,2.43
2023-03-12T18:21:18.072Z,2.83
2023-03-12T18:23:54.409Z,2.97
2023-03-12T18:26:27.957Z,3.20
2023-03-12T18:29:03.052Z,1.93
2023-03-12T18:31:30.668Z,2.90
2023-03-12T18:34:05.067Z,2.80
2023-03-12T18:36:32.455Z,2.93
2023-03-12T18:39:10.987Z,2.30
2023-03-12T18:41:47.529Z,2.50
2023-03-12T18:44:15.097Z,2.67
2023-03-12T18:46:53.629Z,2.50
2023-03-12T18:49:28.555Z,3.00
2023-03-12T18:52:03.574Z,2.37
2023-03-12T18:54:31.261Z,2.30
2023-03-12T18:57:05.531Z,2.57
2023-03-12T18:59:34.172Z,2.87
2023-03-12T19:02:08.640Z,1.87
2023-03-12T19:04:49.604Z,2.77
2023-03-12T19:07:32.891Z,2.23
2023-03-12T19:10:00.266Z,3.57
2023-03-12T19:12:45.530Z,3.13
2023-03-12T19:15:24.607Z,2.73
2023-03-12T19:17:52.681Z,3.83
2023-03-12T19:20:31.180Z,6.07
2023-03-12T19:23:05.717Z,4.40
2023-03-12T19:25:39.562Z,2.70
2023-03-12T19:28:13.588Z,4.00
2023-03-12T19:30:40.968Z,7.27
2023-03-12T19:33:15.598Z,2.57
2023-03-12T19:35:49.683Z,3.03
2023-03-12T19:38:24.589Z,2.60
2023-03-12T19:41:00.636Z,2.70
2023-03-12T19:43:35.641Z,2.23
2023-03-12T19:46:03.399Z,3.07
2023-03-12T19:48:37.679Z,2.97
2023-03-12T19:51:15.568Z,3.23
2023-03-12T19:53:49.861Z,3.27
2023-03-12T19:56:34.716Z,3.33
2023-03-12T19:59:15.568Z,2.13
2023-03-12T20:01:43.538Z,3.83
2023-03-12T20:04:26.918Z,2.00
2023-03-12T20:07:00.716Z,2.23
2023-03-12T20:09:35.902Z,2.63
2023-03-12T20:12:09.590Z,2.90
2023-03-12T20:14:44.657Z,2.97
2023-03-12T20:17:12.351Z,2.53
2023-03-12T20:19:51.555Z,2.30
2023-03-12T20:22:25.056Z,2.13
2023-03-12T20:24:53.920Z,2.03
2023-03-12T20:27:28.424Z,2.47
2023-03-12T20:30:06.264Z,2.70
2023-03-12T20:32:40.181Z,2.90
2023-03-12T20:35:17.141Z,2.30
2023-03-12T20:37:51.012Z,2.67
2023-03-12T20:40:18.673Z,2.40
2023-03-12T20:42:54.056Z,3.00
2023-03-12T20:45:21.818Z,3.43
2023-03-12T20:47:49.575Z,2.20
2023-03-12T20:50:24.048Z,3.20
2023-03-12T20:52:52.959Z,3.10
2023-03-12T20:55:27.027Z,2.73
2023-03-12T20:57:55.392Z,3.63
2023-03-12T21:00:30.057Z,2.20
2023-03-12T21:03:04.102Z,2.20
2023-03-12T21:05:38.171Z,3.10
2023-03-12T21:08:14.169Z,2.90
2023-03-12T21:10:45.508Z,3.20
2023-03-12T21:13:13.151Z,1.97
2023-03-12T21:15:47.214Z,2.50
2023-03-12T21:18:14.644Z,3.37
2023-03-12T21:20:49.241Z,2.80
2023-03-12T21:23:16.900Z,3.00
2023-03-12T21:25:44.438Z,3.03
2023-03-12T21:28:18.283Z,3.10
2023-03-12T21:30:49.668Z,2.80
2023-03-12T21:33:25.246Z,2.50
2023-03-12T21:35:53.086Z,2.50
2023-03-12T21:38:29.949Z,2.70
2023-03-12T21:40:59.214Z,2.53
2023-03-12T21:43:36.212Z,2.43
2023-03-12T21:46:19.751Z,2.70
2023-03-12T21:48:54.175Z,2.53
2023-03-12T21:51:29.172Z,3.00
2023-03-12T21:53:59.741Z,2.80
2023-03-12T21:56:34.585Z,3.00
2023-03-12T21:59:08.640Z,2.73
2023-03-12T22:01:36.114Z,2.90
2023-03-12T22:04:22.655Z,3.20
2023-03-12T22:06:57.573Z,2.83
2023-03-12T22:09:34.253Z,2.93
2023-03-12T22:12:08.257Z,2.60
2023-03-12T22:14:42.217Z,3.00
2023-03-12T22:17:16.242Z,3.37
2023-03-12T22:19:50.204Z,2.77
2023-03-12T22:22:25.204Z,3.27
2023-03-12T22:25:00.232Z,3.23
2023-03-12T22:27:45.105Z,3.17
2023-03-12T22:30:21.082Z,3.30
2023-03-12T22:32:55.218Z,2.70
2023-03-12T22:35:32.077Z,2.97
2023-03-12T22:38:08.684Z,2.93
2023-03-12T22:40:46.312Z,3.10
2023-03-12T22:43:14.074Z,2.60
2023-03-12T22:45:48.253Z,3.33
2023-03-12T22:48:17.737Z,4.80
2023-03-12T22:50:51.764Z,3.40
2023-03-12T22:53:25.730Z,2.73
2023-03-12T22:56:11.702Z,3.03
2023-03-12T22:58:45.809Z,4.07
2023-03-12T23:01:20.526Z,3.10
2023-03-12T23:03:55.227Z,3.20
2023-03-12T23:06:39.725Z,3.47
2023-03-12T23:09:14.710Z,2.93
2023-03-12T23:11:48.737Z,2.37
2023-03-12T23:14:22.762Z,3.00
2023-03-12T23:16:50.156Z,2.37
2023-03-12T23:19:23.122Z,3.10
2023-03-12T23:21:56.842Z,2.80
2023-03-12T23:24:24.347Z,4.17
2023-03-12T23:26:57.843Z,3.27
2023-03-12T23:29:25.257Z,2.50
2023-03-12T23:32:00.131Z,2.63
2023-03-12T23:34:28.065Z,2.80
2023-03-12T23:37:01.878Z,2.83
2023-03-12T23:39:53.458Z,2.50
2023-03-12T23:42:23.037Z,2.33
2023-03-12T23:44:56.950Z,3.00
2023-03-12T23:47:27.580Z,2.30
2023-03-12T23:50:01.925Z,2.17
2023-03-12T23:52:33.933Z,2.67
2023-03-12T23:55:08.400Z,2.47
2023-03-12T23:57:37.710Z,2.57
